createdAt,value
2022-11-28T00:01:28.632Z,101515.91
2022-11-28T00:03:56.547Z,101514.97
2022-11-28T00:06:27.001Z,101505.53
2022-11-28T00:08:55.441Z,101501.34
2022-11-28T00:11:23.406Z,101497.03
2022-11-28T00:13:51.209Z,101497.13
2022-11-28T00:16:22.244Z,101492.81
2022-11-28T00:18:51.180Z,101489.41
2022-11-28T00:21:19.828Z,101485.91
2022-11-28T00:23:49.563Z,101491.97
2022-11-28T00:26:21.467Z,101482.31
2022-11-28T00:28:49.492Z,101479.88
2022-11-28T00:31:19.364Z,101475.63
2022-11-28T00:33:47.351Z,101472.09
2022-11-28T00:36:15.187Z,101462.69
2022-11-28T00:38:43.494Z,101464.44
2022-11-28T00:41:14.481Z,101465.25
2022-11-28T00:43:42.504Z,101468.75
2022-11-28T00:46:10.957Z,101464.41
2022-11-28T00:48:38.975Z,101469.50
2022-11-28T00:51:08.433Z,101472.09
2022-11-28T00:53:36.258Z,101471.91
2022-11-28T00:56:05.679Z,101472.03
2022-11-28T00:58:35.385Z,101464.25
2022-11-28T01:01:08.866Z,101468.78
2022-11-28T01:03:36.716Z,101465.09
2022-11-28T01:06:04.864Z,101466.84
2022-11-28T01:08:32.830Z,101450.56
2022-11-28T01:11:01.311Z,101444.47
2022-11-28T01:13:29.318Z,101453.19
2022-11-28T01:15:59.530Z,101444.50
2022-11-28T01:18:27.408Z,101435.88
2022-11-28T01:20:55.214Z,101439.41
2022-11-28T01:23:23.055Z,101430.13
2022-11-28T01:25:50.898Z,101431.63
2022-11-28T01:28:18.928Z,101427.25
2022-11-28T01:30:46.727Z,101422.94
2022-11-28T01:33:16.135Z,101428.19
2022-11-28T01:35:43.963Z,101419.59
2022-11-28T01:38:11.758Z,101413.53
2022-11-28T01:40:46.484Z,101413.53
2022-11-28T01:43:14.364Z,101409.94
2022-11-28T01:45:42.498Z,101409.13
2022-11-28T01:48:13.104Z,101391.63
2022-11-28T01:50:43.834Z,101403.19
2022-11-28T01:53:12.148Z,101400.59
2022-11-28T01:55:54.159Z,101402.22
2022-11-28T01:58:22.081Z,101400.81
2022-11-28T02:00:51.687Z,101394.75
2022-11-28T02:03:22.545Z,101382.56
2022-11-28T02:05:52.277Z,101388.56
2022-11-28T02:08:20.150Z,101385.09
2022-11-28T02:11:11.016Z,101385.16
2022-11-28T02:13:43.754Z,101381.75
2022-11-28T02:16:22.638Z,101376.59
2022-11-28T02:19:00.651Z,101375.69
2022-11-28T02:21:44.023Z,101373.25
2022-11-28T02:24:59.377Z,101365.16
2022-11-28T02:27:59.968Z,101365.31
2022-11-28T02:30:30.655Z,101355.84
2022-11-28T02:33:08.281Z,101365.44
2022-11-28T02:35:40.466Z,101356.78
2022-11-28T02:38:14.632Z,101355.94
2022-11-28T02:40:48.143Z,101351.56
2022-11-28T02:43:23.344Z,101351.69
2022-11-28T02:45:56.617Z,101347.41
2022-11-28T02:48:30.034Z,101342.25
2022-11-28T02:51:02.367Z,101342.94
2022-11-28T02:53:32.265Z,101342.34
2022-11-28T02:56:00.688Z,101346.66
2022-11-28T02:58:28.543Z,101345.59
2022-11-28T03:00:56.774Z,101332.69
2022-11-28T03:03:44.458Z,101328.50
2022-11-28T03:06:19.992Z,101326.66
2022-11-28T03:09:01.080Z,101325.72
2022-11-28T03:11:42.074Z,101324.03
2022-11-28T03:14:15.395Z,101322.25
2022-11-28T03:16:47.912Z,101320.84
2022-11-28T03:19:21.267Z,101321.59
2022-11-28T03:21:55.751Z,101320.75
2022-11-28T03:24:26.814Z,101319.00
2022-11-28T03:26:56.708Z,101319.00
2022-11-28T03:29:27.701Z,101317.28
2022-11-28T03:31:58.365Z,101321.56
2022-11-28T03:34:31.697Z,101320.91
2022-11-28T03:37:03.163Z,101312.13
2022-11-28T03:39:35.238Z,101306.16
2022-11-28T03:42:07.060Z,101306.16
2022-11-28T03:44:40.520Z,101301.75
2022-11-28T03:47:09.006Z,101298.56
2022-11-28T03:49:40.739Z,101302.94
2022-11-28T03:52:12.542Z,101296.84
2022-11-28T03:54:44.375Z,101299.63
2022-11-28T03:57:14.303Z,101295.38
2022-11-28T03:59:44.754Z,101298.69
2022-11-28T04:02:17.631Z,101290.06
2022-11-28T04:04:53.503Z,101299.53
2022-11-28T04:07:26.698Z,101299.50
2022-11-28T04:10:00.406Z,101285.66
2022-11-28T04:12:35.222Z,101288.94
2022-11-28T04:15:07.654Z,101284.59
2022-11-28T04:17:38.699Z,101284.59
2022-11-28T04:20:15.177Z,101278.56
2022-11-28T04:22:46.406Z,101292.41
2022-11-28T04:25:16.630Z,101283.91
2022-11-28T04:27:49.279Z,101284.66
2022-11-28T04:30:17.388Z,101285.53
2022-11-28T04:32:48.491Z,101277.66
2022-11-28T04:35:23.053Z,101279.31
2022-11-28T04:37:53.254Z,101272.59
2022-11-28T04:40:21.876Z,101267.22
2022-11-28T04:42:53.209Z,101261.97
2022-11-28T04:45:26.006Z,101273.97
2022-11-28T04:47:54.215Z,101258.66
2022-11-28T04:50:25.149Z,101260.13
2022-11-28T04:52:56.257Z,101260.53
2022-11-28T04:55:30.293Z,101256.59
2022-11-28T04:58:04.475Z,101256.44
2022-11-28T05:00:34.771Z,101264.16
2022-11-28T05:03:02.817Z,101265.16
2022-11-28T05:05:32.257Z,101264.13
2022-11-28T05:08:00.351Z,101260.81
2022-11-28T05:10:28.519Z,101266.75
2022-11-28T05:12:56.293Z,101265.06
2022-11-28T05:15:24.102Z,101272.72
2022-11-28T05:17:52.011Z,101264.22
2022-11-28T05:20:19.915Z,101268.44
2022-11-28T05:22:49.358Z,101262.03
2022-11-28T05:25:17.397Z,101260.41
2022-11-28T05:27:45.493Z,101258.13
2022-11-28T05:30:14.938Z,101263.34
2022-11-28T05:32:42.844Z,101262.38
2022-11-28T05:35:10.693Z,101255.22
2022-11-28T05:37:38.781Z,101255.72
2022-11-28T05:40:09.331Z,101248.28
2022-11-28T05:42:37.661Z,101251.53
2022-11-28T05:45:06.081Z,101249.75
2022-11-28T05:47:34.464Z,101246.34
2022-11-28T05:50:02.461Z,101240.28
2022-11-28T05:52:32.180Z,101240.41
2022-11-28T05:55:01.535Z,101240.41
2022-11-28T05:57:32.626Z,101237.16
2022-11-28T06:00:00.443Z,101236.19
2022-11-28T06:02:28.240Z,101231.53
2022-11-28T06:04:56.186Z,101228.47
2022-11-28T06:07:24.096Z,101228.47
2022-11-28T06:09:51.992Z,101225.25
2022-11-28T06:12:19.840Z,101228.28
2022-11-28T06:14:49.047Z,101218.78
2022-11-28T06:17:16.862Z,101203.28
2022-11-28T06:19:45.164Z,101207.50
2022-11-28T06:22:13.120Z,101212.31
2022-11-28T06:24:40.901Z,101207.75
2022-11-28T06:27:08.760Z,101208.28
2022-11-28T06:29:36.896Z,101202.50
2022-11-28T06:32:06.161Z,101199.44
2022-11-28T06:34:34.439Z,101205.09
2022-11-28T06:37:02.357Z,101196.78
2022-11-28T06:39:30.224Z,101197.63
2022-11-28T06:41:58.081Z,101199.94
2022-11-28T06:44:26.141Z,101203.13
2022-11-28T06:46:54.677Z,101206.25
2022-11-28T06:49:23.872Z,101203.53
2022-11-28T06:51:51.685Z,101209.53
2022-11-28T06:54:19.516Z,101205.25
2022-11-28T06:56:47.310Z,101203.47
2022-11-28T06:59:15.134Z,101205.16
2022-11-28T07:01:43.066Z,101201.41
2022-11-28T07:04:11.209Z,101205.03
2022-11-28T07:06:40.434Z,101204.78
2022-11-28T07:09:08.324Z,101204.00
2022-11-28T07:11:36.106Z,101204.25
2022-11-28T07:14:04.321Z,101199.59
2022-11-28T07:16:33.720Z,101198.47
2022-11-28T07:19:01.842Z,101197.00
2022-11-28T07:21:30.183Z,101194.97
2022-11-28T07:24:00.690Z,101211.56
2022-11-28T07:26:28.735Z,101200.31
2022-11-28T07:28:58.224Z,101204.75
2022-11-28T07:31:31.811Z,101200.53
2022-11-28T07:34:02.108Z,101197.53
2022-11-28T07:36:30.359Z,101198.44
2022-11-28T07:39:00.852Z,101204.13
2022-11-28T07:41:29.339Z,101201.56
2022-11-28T07:43:59.002Z,101194.84
2022-11-28T07:46:28.436Z,101187.16
2022-11-28T07:48:56.593Z,101187.41
2022-11-28T07:51:27.201Z,101185.66
2022-11-28T07:53:55.187Z,101186.84
2022-11-28T07:56:35.159Z,101180.81
2022-11-28T07:59:12.821Z,101180.75
2022-11-28T08:01:40.757Z,101180.56
2022-11-28T08:04:10.012Z,101185.72
2022-11-28T08:06:39.778Z,101186.88
2022-11-28T08:09:08.139Z,101186.59
2022-11-28T08:11:37.722Z,101187.03
2022-11-28T08:14:06.542Z,101188.69
2022-11-28T08:16:34.691Z,101180.00
2022-11-28T08:19:03.148Z,101175.16
2022-11-28T08:21:32.233Z,101171.03
2022-11-28T08:24:02.163Z,101175.44
2022-11-28T08:26:31.395Z,101162.38
2022-11-28T08:29:01.345Z,101173.91
2022-11-28T08:31:31.355Z,101156.47
2022-11-28T08:34:00.945Z,101167.91
2022-11-28T08:36:29.461Z,101163.97
2022-11-28T08:39:09.848Z,101163.94
2022-11-28T08:41:46.139Z,101159.66
2022-11-28T08:44:16.141Z,101157.75
2022-11-28T08:46:44.078Z,101158.88
2022-11-28T08:49:11.840Z,101159.41
2022-11-28T08:51:39.652Z,101164.31
2022-11-28T08:54:07.593Z,101169.72
2022-11-28T08:56:35.573Z,101159.78
2022-11-28T08:59:03.533Z,101159.50
2022-11-28T09:01:32.988Z,101158.13
2022-11-28T09:04:00.900Z,101162.91
2022-11-28T09:06:28.797Z,101163.47
2022-11-28T09:08:56.652Z,101165.00
2022-11-28T09:11:25.077Z,101172.06
2022-11-28T09:13:52.949Z,101175.22
2022-11-28T09:16:21.029Z,101179.69
2022-11-28T09:18:51.086Z,101177.91
2022-11-28T09:21:18.980Z,101180.13
2022-11-28T09:23:46.831Z,101169.41
2022-11-28T09:26:16.666Z,101169.97
2022-11-28T09:28:45.110Z,101174.31
2022-11-28T09:31:13.857Z,101163.34
2022-11-28T09:33:41.871Z,101169.16
2022-11-28T09:36:14.254Z,101169.84
2022-11-28T09:38:42.429Z,101173.13
2022-11-28T09:41:30.663Z,101166.34
2022-11-28T09:44:02.128Z,101162.47
2022-11-28T09:46:32.669Z,101159.97
2022-11-28T09:49:03.026Z,101148.16
2022-11-28T09:51:35.887Z,101148.53
2022-11-28T09:54:09.266Z,101148.38
2022-11-28T09:56:37.254Z,101146.19
2022-11-28T09:59:05.638Z,101139.25
2022-11-28T10:01:39.357Z,101137.66
2022-11-28T10:04:18.527Z,101138.03
2022-11-28T10:06:53.289Z,101131.41
2022-11-28T10:09:30.199Z,101128.28
2022-11-28T10:12:08.012Z,101121.34
2022-11-28T10:14:52.126Z,101129.88
2022-11-28T10:17:28.557Z,101132.59
2022-11-28T10:19:58.604Z,101136.28
2022-11-28T10:22:33.407Z,101130.50
2022-11-28T10:25:06.591Z,101135.66
2022-11-28T10:27:36.613Z,101133.44
2022-11-28T10:30:07.913Z,101127.06
2022-11-28T10:32:39.780Z,101134.25
2022-11-28T10:35:11.544Z,101128.72
2022-11-28T10:37:41.182Z,101130.22
2022-11-28T10:40:19.388Z,101124.81
2022-11-28T10:42:52.164Z,101131.25
2022-11-28T10:45:27.591Z,101131.53
2022-11-28T10:48:37.974Z,101128.34
2022-11-28T10:51:04.043Z,101123.97
2022-11-28T10:53:42.321Z,101121.41
2022-11-28T10:56:17.219Z,101117.38
2022-11-28T10:58:51.608Z,101111.91
2022-11-28T11:01:19.698Z,101106.97
2022-11-28T11:03:47.715Z,101100.16
2022-11-28T11:06:15.622Z,101097.19
2022-11-28T11:08:46.662Z,101080.81
2022-11-28T11:11:25.489Z,101079.41
2022-11-28T11:14:01.584Z,101073.13
2022-11-28T11:16:47.774Z,101080.88
2022-11-28T11:19:25.487Z,101093.44
2022-11-28T11:22:01.645Z,101094.72
2022-11-28T11:24:31.153Z,101093.28
2022-11-28T11:27:05.580Z,101091.16
2022-11-28T11:29:35.865Z,101093.66
2022-11-28T11:32:06.366Z,101094.72
2022-11-28T11:34:39.362Z,101093.78
2022-11-28T11:37:33.227Z,101095.63
2022-11-28T11:40:03.955Z,101101.66
2022-11-28T11:42:33.519Z,101103.81
2022-11-28T11:45:25.449Z,101102.66
2022-11-28T11:47:53.235Z,101092.75
2022-11-28T11:50:23.166Z,101090.81
2022-11-28T11:53:08.212Z,101098.22
2022-11-28T11:55:45.188Z,101098.38
2022-11-28T11:58:15.691Z,101094.91
2022-11-28T12:00:45.553Z,101086.00
2022-11-28T12:03:19.854Z,101081.94
2022-11-28T12:08:42.583Z,101073.06
2022-11-28T12:11:16.716Z,101068.06
2022-11-28T12:13:44.887Z,101071.66
2022-11-28T12:16:26.530Z,101069.63
2022-11-28T12:19:01.306Z,101059.22
2022-11-28T12:21:36.453Z,101045.94
2022-11-28T12:24:10.188Z,101052.47
2022-11-28T12:26:43.420Z,101049.28
2022-11-28T12:29:26.404Z,101048.22
2022-11-28T12:32:05.286Z,101049.25
2022-11-28T12:34:39.400Z,101042.16
2022-11-28T12:37:12.313Z,101043.88
2022-11-28T12:39:50.265Z,101047.88
2022-11-28T12:42:30.758Z,101041.69
2022-11-28T12:45:16.527Z,101044.44
2022-11-28T12:47:51.495Z,101051.28
2022-11-28T12:50:27.563Z,101058.88
2022-11-28T12:53:06.465Z,101051.75
2022-11-28T12:55:38.142Z,101044.56
2022-11-28T12:58:11.504Z,101049.72
2022-11-28T13:00:49.417Z,101045.41
2022-11-28T13:03:33.491Z,101052.78
2022-11-28T13:06:12.216Z,101050.78
2022-11-28T13:08:50.018Z,101036.06
2022-11-28T13:11:33.664Z,101048.66
2022-11-28T13:14:06.887Z,101038.34
2022-11-28T13:16:42.848Z,101029.38
2022-11-28T13:19:15.969Z,101022.81
2022-11-28T13:21:47.935Z,101021.38
2022-11-28T13:24:23.963Z,101029.66
2022-11-28T13:26:58.906Z,101031.47
2022-11-28T13:29:35.094Z,101025.34
2022-11-28T13:32:11.772Z,101025.97
2022-11-28T13:34:40.142Z,101027.19
2022-11-28T13:40:08.235Z,101026.38
2022-11-28T13:45:32.689Z,101023.31
2022-11-28T13:48:01.281Z,101022.97
2022-11-28T13:50:40.814Z,101033.00
2022-11-28T13:53:23.234Z,101022.66
2022-11-28T13:55:53.227Z,101019.53
2022-11-28T13:58:28.336Z,101018.50
2022-11-28T14:01:08.617Z,101019.44
2022-11-28T14:03:45.046Z,101018.69
2022-11-28T14:06:15.718Z,101016.28
2022-11-28T14:08:45.386Z,101020.19
2022-11-28T14:11:31.076Z,101015.91
2022-11-28T14:14:25.543Z,101023.00
2022-11-28T14:17:04.999Z,101021.16
2022-11-28T14:19:48.745Z,101029.59
2022-11-28T14:22:33.158Z,101020.03
2022-11-28T14:25:06.192Z,101023.94
2022-11-28T14:27:36.021Z,101025.09
2022-11-28T14:30:07.742Z,101019.47
2022-11-28T14:32:39.243Z,101020.88
2022-11-28T14:35:13.351Z,101023.56
2022-11-28T14:37:52.977Z,101023.13
2022-11-28T14:41:03.107Z,101022.91
2022-11-28T14:43:32.460Z,101014.59
2022-11-28T14:46:26.923Z,101018.75
2022-11-28T14:49:24.473Z,101018.16
2022-11-28T14:52:40.266Z,101019.69
2022-11-28T14:55:20.502Z,101025.25
2022-11-28T14:57:57.494Z,101028.25
2022-11-28T15:00:26.917Z,101028.06
2022-11-28T15:03:08.327Z,101027.06
2022-11-28T15:05:45.662Z,101037.69
2022-11-28T15:08:26.115Z,101037.03
2022-11-28T15:11:01.099Z,101037.53
2022-11-28T15:13:40.881Z,101041.13
2022-11-28T15:16:13.123Z,101035.38
2022-11-28T15:18:47.054Z,101046.66
2022-11-28T15:21:18.065Z,101041.00
2022-11-28T15:23:47.705Z,101045.00
2022-11-28T15:26:27.948Z,101047.63
2022-11-28T15:29:10.373Z,101054.34
2022-11-28T15:31:38.996Z,101044.84
2022-11-28T15:34:09.842Z,101043.22
2022-11-28T15:36:42.484Z,101042.25
2022-11-28T15:39:25.193Z,101049.06
2022-11-28T15:41:53.803Z,101046.75
2022-11-28T15:44:21.947Z,101044.09
2022-11-28T15:46:49.883Z,101046.09
2022-11-28T15:49:26.203Z,101043.13
2022-11-28T15:51:59.615Z,101050.03
2022-11-28T15:54:36.352Z,101046.88
2022-11-28T15:57:05.733Z,101041.06
2022-11-28T15:59:34.766Z,101044.34
2022-11-28T16:02:05.757Z,101052.16
2022-11-28T16:04:33.742Z,101051.44
2022-11-28T16:07:03.449Z,101046.41
2022-11-28T16:09:33.896Z,101062.88
2022-11-28T16:12:04.011Z,101060.03
2022-11-28T16:14:34.264Z,101059.22
2022-11-28T16:17:03.975Z,101058.56
2022-11-28T16:19:33.403Z,101055.84
2022-11-28T16:22:04.194Z,101059.44
2022-11-28T16:24:38.833Z,101055.03
2022-11-28T16:27:07.374Z,101063.72
2022-11-28T16:29:37.053Z,101062.53
2022-11-28T16:32:08.915Z,101058.38
2022-11-28T16:34:47.651Z,101055.97
2022-11-28T16:37:20.963Z,101064.16
2022-11-28T16:39:49.134Z,101057.16
2022-11-28T16:42:20.123Z,101055.38
2022-11-28T16:44:47.965Z,101054.53
2022-11-28T16:47:27.533Z,101053.72
2022-11-28T16:50:22.991Z,101051.94
2022-11-28T16:52:55.647Z,101058.13
2022-11-28T16:55:40.660Z,101060.72
2022-11-28T16:58:17.715Z,101063.50
2022-11-28T17:00:59.030Z,101066.88
2022-11-28T17:03:47.721Z,101064.75
2022-11-28T17:06:21.623Z,101062.06
2022-11-28T17:08:51.067Z,101067.78
2022-11-28T17:11:21.567Z,101067.53
2022-11-28T17:13:49.512Z,101070.00
2022-11-28T17:16:19.939Z,101069.34
2022-11-28T17:18:48.172Z,101069.94
2022-11-28T17:21:17.573Z,101061.03
2022-11-28T17:23:45.772Z,101064.41
2022-11-28T17:26:14.956Z,101067.66
2022-11-28T17:28:42.781Z,101064.94
2022-11-28T17:31:12.787Z,101067.59
2022-11-28T17:33:44.666Z,101064.59
2022-11-28T17:36:13.393Z,101060.69
2022-11-28T17:38:41.184Z,101052.41
2022-11-28T17:41:14.601Z,101045.72
2022-11-28T17:43:42.713Z,101054.38
2022-11-28T17:46:10.781Z,101054.50
2022-11-28T17:48:38.679Z,101054.50
2022-11-28T17:51:07.012Z,101051.97
2022-11-28T17:53:35.151Z,101048.00
2022-11-28T17:56:03.108Z,101054.38
2022-11-28T17:58:32.827Z,101042.13
2022-11-28T18:01:01.168Z,101045.00
2022-11-28T18:03:29.413Z,101052.13
2022-11-28T18:05:57.234Z,101053.78
2022-11-28T18:08:25.188Z,101053.25
2022-11-28T18:11:04.238Z,101049.69
2022-11-28T18:13:33.698Z,101053.91
2022-11-28T18:16:01.785Z,101050.84
2022-11-28T18:18:30.373Z,101049.44
2022-11-28T18:20:58.461Z,101055.63
2022-11-28T18:23:26.318Z,101058.19
2022-11-28T18:25:54.127Z,101063.03
2022-11-28T18:28:22.903Z,101063.16
2022-11-28T18:30:52.272Z,101065.66
2022-11-28T18:33:20.330Z,101058.88
2022-11-28T18:35:48.336Z,101045.19
2022-11-28T18:38:16.198Z,101055.72
2022-11-28T18:40:44.007Z,101056.69
2022-11-28T18:43:11.904Z,101054.78
2022-11-28T18:45:39.772Z,101052.09
2022-11-28T18:48:09.810Z,101049.53
2022-11-28T18:50:37.656Z,101049.75
2022-11-28T18:53:05.448Z,101048.75
2022-11-28T18:55:33.508Z,101043.56
2022-11-28T18:58:01.623Z,101044.34
2022-11-28T19:00:29.355Z,101028.53
2022-11-28T19:02:57.239Z,101023.41
2022-11-28T19:05:26.435Z,101032.91
2022-11-28T19:07:54.265Z,101043.28
2022-11-28T19:10:22.109Z,101042.53
2022-11-28T19:12:50.206Z,101039.03
2022-11-28T19:15:18.466Z,101039.75
2022-11-28T19:17:46.491Z,101042.72
2022-11-28T19:20:14.798Z,101050.03
2022-11-28T19:22:44.293Z,101046.88
2022-11-28T19:25:12.188Z,101041.66
2022-11-28T19:27:40.029Z,101037.69
2022-11-28T19:30:09.168Z,101046.84
2022-11-28T19:32:37.328Z,101054.25
2022-11-28T19:35:05.514Z,101043.53
2022-11-28T19:37:33.811Z,101051.97
2022-11-28T19:40:03.662Z,101049.63
2022-11-28T19:42:31.797Z,101053.84
2022-11-28T19:44:59.581Z,101053.84
2022-11-28T19:47:28.081Z,101047.91
2022-11-28T19:49:55.952Z,101050.56
2022-11-28T19:52:23.793Z,101057.59
2022-11-28T19:54:51.747Z,101053.25
2022-11-28T19:57:20.909Z,101062.03
2022-11-28T19:59:49.122Z,101051.59
2022-11-28T20:02:17.645Z,101052.50
2022-11-28T20:04:45.495Z,101049.81
2022-11-28T20:07:13.604Z,101049.84
2022-11-28T20:09:41.974Z,101052.41
2022-11-28T20:12:10.063Z,101062.00
2022-11-28T20:14:39.377Z,101056.03
2022-11-28T20:17:07.289Z,101061.22
2022-11-28T20:19:35.492Z,101063.72
2022-11-28T20:22:03.461Z,101063.88
2022-11-28T20:24:31.448Z,101058.38
2022-11-28T20:26:59.452Z,101061.16
2022-11-28T20:29:27.933Z,101069.06
2022-11-28T20:31:57.981Z,101059.53
2022-11-28T20:34:27.409Z,101071.41
2022-11-28T20:36:55.298Z,101062.03
2022-11-28T20:39:23.436Z,101064.56
2022-11-28T20:41:51.264Z,101063.56
2022-11-28T20:44:19.217Z,101065.56
2022-11-28T20:46:49.438Z,101072.50
2022-11-28T20:49:19.058Z,101064.44
2022-11-28T20:51:47.344Z,101075.00
2022-11-28T20:54:15.604Z,101069.78
2022-11-28T20:57:19.077Z,101068.25
2022-11-28T20:59:32.639Z,101063.75
2022-11-28T21:02:00.544Z,101062.88
2022-11-28T21:04:29.872Z,101059.44
2022-11-28T21:06:57.733Z,101066.56
2022-11-28T21:09:25.690Z,101067.47
2022-11-28T21:11:59.008Z,101063.88
2022-11-28T21:14:28.522Z,101072.47
2022-11-28T21:16:56.652Z,101063.03
2022-11-28T21:19:24.664Z,101067.53
2022-11-28T21:21:53.930Z,101070.41
2022-11-28T21:24:21.825Z,101062.28
2022-11-28T21:26:53.891Z,101057.88
2022-11-28T21:29:23.741Z,101062.22
2022-11-28T21:31:51.594Z,101053.66
2022-11-28T21:34:19.779Z,101054.91
2022-11-28T21:36:47.854Z,101056.63
2022-11-28T21:39:25.034Z,101063.72
2022-11-28T21:41:52.914Z,101060.94
2022-11-28T21:44:20.807Z,101060.03
2022-11-28T21:46:50.036Z,101055.88
2022-11-28T21:49:18.101Z,101055.25
2022-11-28T21:51:46.463Z,101060.03
2022-11-28T21:54:14.374Z,101058.38
2022-11-28T21:56:46.484Z,101059.09
2022-11-28T21:59:14.511Z,101061.22
2022-11-28T22:01:42.469Z,101058.72
2022-11-28T22:04:10.913Z,101050.22
2022-11-28T22:06:39.629Z,101063.25
2022-11-28T22:09:09.786Z,101065.78
2022-11-28T22:11:39.984Z,101070.28
2022-11-28T22:14:09.695Z,101059.28
2022-11-28T22:16:38.325Z,101067.66
2022-11-28T22:19:06.443Z,101063.06
2022-11-28T22:21:55.289Z,101062.41
2022-11-28T22:24:24.637Z,101065.81
2022-11-28T22:26:54.379Z,101071.16
2022-11-28T22:29:23.741Z,101071.94
2022-11-28T22:31:51.646Z,101063.41
2022-11-28T22:34:19.731Z,101066.09
2022-11-28T22:36:47.617Z,101066.91
2022-11-28T22:39:15.498Z,101071.34
2022-11-28T22:41:43.408Z,101060.06
2022-11-28T22:44:11.818Z,101067.72
2022-11-28T22:46:41.229Z,101070.44
2022-11-28T22:49:11.611Z,101073.66
2022-11-28T22:51:39.835Z,101068.53
2022-11-28T22:54:08.304Z,101066.00
2022-11-28T22:56:36.229Z,101071.06
2022-11-28T22:59:04.796Z,101067.66
2022-11-28T23:01:34.661Z,101071.09
2022-11-28T23:04:04.399Z,101067.94
2022-11-28T23:06:34.334Z,101071.44
2022-11-28T23:09:04.579Z,101067.09
2022-11-28T23:11:34.054Z,101068.78
2022-11-28T23:14:03.296Z,101062.84
2022-11-28T23:16:32.949Z,101076.75
2022-11-28T23:19:05.350Z,101064.75
2022-11-28T23:21:35.146Z,101073.59
2022-11-28T23:24:04.378Z,101064.22
2022-11-28T23:26:33.769Z,101065.06
2022-11-28T23:29:05.181Z,101068.56
2022-11-28T23:31:36.208Z,101073.88
2022-11-28T23:34:05.702Z,101068.72
2022-11-28T23:36:41.542Z,101074.81
2022-11-28T23:39:11.856Z,101074.66
2022-11-28T23:41:39.938Z,101066.19
2022-11-28T23:44:08.265Z,101075.72
2022-11-28T23:46:36.949Z,101067.09
2022-11-28T23:49:06.312Z,101066.47
2022-11-28T23:51:34.530Z,101062.91
2022-11-28T23:54:02.398Z,101063.16
2022-11-28T23:56:31.607Z,101063.09
2022-11-28T23:59:02.132Z,101061.53
